createdAt,value
2023-05-21T00:03:55.665Z,97290.34
2023-05-21T00:13:59.008Z,97294.60
2023-05-21T00:24:02.309Z,97287.44
2023-05-21T00:34:05.610Z,97282.05
2023-05-21T00:44:09.455Z,97280.62
2023-05-21T00:54:13.007Z,97279.91
2023-05-21T01:04:16.819Z,97282.17
2023-05-21T01:14:21.373Z,97283.68
2023-05-21T01:24:24.545Z,97278.41
2023-05-21T01:34:40.928Z,97270.85
2023-05-21T01:44:45.460Z,97265.02
2023-05-21T01:54:50.131Z,97268.02
2023-05-21T02:04:53.180Z,97260.27
2023-05-21T02:14:56.569Z,97254.04
2023-05-21T02:25:00.487Z,97248.02
2023-05-21T02:35:04.906Z,97244.77
2023-05-21T02:45:09.498Z,97233.14
2023-05-21T02:55:13.316Z,97236.52
2023-05-21T03:05:16.753Z,97225.20
2023-05-21T03:15:24.307Z,97232.60
2023-05-21T03:25:27.504Z,97235.15
2023-05-21T03:35:31.446Z,97233.13
2023-05-21T03:45:35.398Z,97229.33
2023-05-21T03:55:57.581Z,97235.48
2023-05-21T04:06:02.117Z,97239.46
2023-05-21T04:16:05.502Z,97239.65
2023-05-21T04:26:08.990Z,97250.48
2023-05-21T04:36:17.376Z,97247.29
2023-05-21T04:46:25.576Z,97238.89
2023-05-21T04:56:30.157Z,97239.16
2023-05-21T05:06:33.463Z,97232.61
2023-05-21T05:16:36.808Z,97226.70
2023-05-21T05:26:40.208Z,97225.20
2023-05-21T05:36:43.414Z,97232.05
2023-05-21T05:46:46.837Z,97227.39
2023-05-21T05:56:50.700Z,97220.14
2023-05-21T06:06:54.585Z,97223.83
2023-05-21T06:16:57.702Z,97221.67
2023-05-21T06:27:04.293Z,97205.33
2023-05-21T06:37:08.212Z,97200.88
2023-05-21T06:47:11.445Z,97194.30
2023-05-21T06:57:16.628Z,97181.73
2023-05-21T07:07:20.416Z,97174.53
2023-05-21T07:17:24.867Z,97166.73
2023-05-21T07:27:44.733Z,97164.30
2023-05-21T07:38:14.698Z,97161.18
2023-05-21T07:48:24.587Z,97164.58
2023-05-21T07:58:37.899Z,97167.15
2023-05-21T08:08:41.979Z,97159.77
2023-05-21T08:19:06.057Z,97155.67
2023-05-21T08:29:12.659Z,97157.75
2023-05-21T08:39:21.168Z,97157.48
2023-05-21T08:49:31.142Z,97153.81
2023-05-21T08:59:37.122Z,97156.25
2023-05-21T09:09:54.355Z,97146.98
2023-05-21T09:20:14.644Z,97137.73
2023-05-21T09:30:37.114Z,97133.57
2023-05-21T09:40:48.026Z,97130.48
2023-05-21T09:51:07.339Z,97123.54
2023-05-21T10:01:42.152Z,97119.63
2023-05-21T10:11:53.050Z,97118.46
2023-05-21T10:21:57.468Z,97116.96
2023-05-21T10:32:12.419Z,97105.56
2023-05-21T10:42:42.975Z,97096.52
2023-05-21T10:53:10.646Z,97094.07
2023-05-21T11:03:18.113Z,97088.44
2023-05-21T11:13:44.736Z,97089.65
2023-05-21T11:24:11.053Z,97085.34
2023-05-21T11:34:41.307Z,97091.08
2023-05-21T11:44:46.775Z,97087.61
2023-05-21T11:54:55.727Z,97083.05
2023-05-21T12:05:00.795Z,97078.59
2023-05-21T12:15:04.629Z,97067.04
2023-05-21T12:25:20.294Z,97066.11
2023-05-21T12:35:24.535Z,97056.34
2023-05-21T12:45:29.563Z,97052.50
2023-05-21T12:56:07.363Z,97043.20
2023-05-21T13:06:11.655Z,97043.72
2023-05-21T13:17:00.558Z,97032.71
2023-05-21T13:27:05.068Z,97026.87
2023-05-21T13:37:08.488Z,97020.18
2023-05-21T13:47:12.558Z,97010.38
2023-05-21T13:57:19.633Z,97005.10
2023-05-21T14:07:24.322Z,96999.83
2023-05-21T14:17:30.798Z,97006.48
2023-05-21T14:27:34.154Z,97009.27
2023-05-21T14:37:44.265Z,97000.36
2023-05-21T14:47:48.021Z,97003.33
2023-05-21T14:58:03.914Z,97009.29
2023-05-21T15:08:10.425Z,97008.02
2023-05-21T15:18:18.882Z,97014.42
2023-05-21T15:28:48.038Z,97015.81
2023-05-21T15:38:55.061Z,97008.16
2023-05-21T15:49:19.936Z,97006.96
2023-05-21T15:59:57.889Z,97006.23
2023-05-21T16:10:23.153Z,97008.93
2023-05-21T16:20:26.414Z,97017.52
2023-05-21T16:30:29.589Z,97027.31
2023-05-21T16:40:33.073Z,97027.09
2023-05-21T16:50:36.270Z,97036.62
2023-05-21T17:00:39.869Z,97040.17
2023-05-21T17:10:43.148Z,97047.77
2023-05-21T17:20:46.611Z,97046.41
2023-05-21T17:30:49.984Z,97045.37
2023-05-21T17:40:53.505Z,97041.36
2023-05-21T17:50:56.662Z,97043.26
2023-05-21T18:00:59.969Z,97045.25
2023-05-21T18:11:03.250Z,97049.92
2023-05-21T18:21:06.623Z,97050.52
2023-05-21T18:31:10.074Z,97060.34
2023-05-21T18:41:14.263Z,97067.16
2023-05-21T18:51:17.551Z,97075.67
2023-05-21T19:01:20.701Z,97088.55
2023-05-21T19:11:24.076Z,97094.06
2023-05-21T19:21:28.572Z,97095.73
2023-05-21T19:31:33.591Z,97100.05
2023-05-21T19:41:36.993Z,97098.31
2023-05-21T19:51:40.247Z,97095.06
2023-05-21T20:01:44.282Z,97095.25
2023-05-21T20:11:50.685Z,97094.52
2023-05-21T20:21:54.213Z,97094.28
2023-05-21T20:31:57.494Z,97099.20
2023-05-21T20:42:01.234Z,97104.25
2023-05-21T20:52:04.848Z,97101.27
2023-05-21T21:02:12.855Z,97093.34
2023-05-21T21:12:26.017Z,97085.75
2023-05-21T21:22:31.392Z,97089.70
2023-05-21T21:32:34.653Z,97098.87
2023-05-21T21:42:38.056Z,97103.52
2023-05-21T21:52:41.481Z,97100.17
2023-05-21T22:02:46.764Z,97096.88
2023-05-21T22:12:50.846Z,97096.41
2023-05-21T22:22:55.379Z,97093.67
2023-05-21T22:32:59.145Z,97087.66
2023-05-21T22:43:03.327Z,97079.69
2023-05-21T22:53:07.091Z,97074.70
2023-05-21T23:03:10.294Z,97076.33
2023-05-21T23:13:13.477Z,97073.02
2023-05-21T23:23:16.668Z,97063.08
2023-05-21T23:33:20.217Z,97058.02
2023-05-21T23:43:24.222Z,97047.35
2023-05-21T23:53:27.245Z,97038.77
